Time;durP1;ratioP1;P1;durP2;ratioP2;P2;SDS_P1;SDS_P2;PMS_P1;PMS_P2;Temp;Humidity;BMP_temperature;BMP_pressure;BME280_temperature;BME280_humidity;BME280_pressure;Samples;Min_cycle;Max_cycle;Signal;HPM_P1;HPM_P2
2023/04/25 00:03:58;;;;;;;5.57;2.08;;;;;;;;;;5430936;23;20073;-65
2023/04/25 00:06:26;;;;;;;4.80;1.83;;;;;;;;;;4977002;28;20046;-65
2023/04/25 00:08:51;;;;;;;5.55;2.20;;;;;;;;;;4974903;28;20165;-64
2023/04/25 00:11:16;;;;;;;5.15;2.00;;;;;;;;;;4971730;28;20110;-65
2023/04/25 00:13:42;;;;;;;5.38;1.98;;;;;;;;;;4976189;28;20101;-63
2023/04/25 00:16:07;;;;;;;5.10;2.13;;;;;;;;;;4967273;28;20031;-65
2023/04/25 00:18:33;;;;;;;5.43;2.10;;;;;;;;;;4970163;28;20087;-65
2023/04/25 00:20:58;;;;;;;5.47;2.00;;;;;;;;;;4970987;28;20031;-64
2023/04/25 00:23:23;;;;;;;5.83;2.20;;;;;;;;;;4969495;28;20338;-64
2023/04/25 00:25:49;;;;;;;4.95;2.03;;;;;;;;;;4967307;28;20037;-63
2023/04/25 00:28:14;;;;;;;4.78;1.90;;;;;;;;;;4966521;28;20101;-64
2023/04/25 00:30:40;;;;;;;4.55;1.90;;;;;;;;;;4969861;28;20121;-63
2023/04/25 00:33:06;;;;;;;5.07;1.90;;;;;;;;;;4968146;28;20481;-65
2023/04/25 00:35:31;;;;;;;5.95;2.03;;;;;;;;;;4965372;28;20393;-65
2023/04/25 00:37:56;;;;;;;5.27;2.17;;;;;;;;;;4970261;28;20033;-65
2023/04/25 00:40:21;;;;;;;3.83;1.70;;;;;;;;;;4967425;28;20462;-66
2023/04/25 00:42:47;;;;;;;5.27;2.10;;;;;;;;;;4964961;28;20067;-65
2023/04/25 00:45:13;;;;;;;5.90;2.43;;;;;;;;;;4958250;28;20019;-65
2023/04/25 00:47:40;;;;;;;6.70;2.60;;;;;;;;;;4960791;28;20478;-65
2023/04/25 00:50:05;;;;;;;6.38;2.58;;;;;;;;;;4968437;28;20022;-64
2023/04/25 00:52:31;;;;;;;8.35;2.85;;;;;;;;;;4967246;28;20114;-65
2023/04/25 00:54:56;;;;;;;6.30;2.70;;;;;;;;;;4965118;28;20358;-64
2023/04/25 00:57:21;;;;;;;6.03;2.83;;;;;;;;;;4965768;28;20808;-63
2023/04/25 00:59:46;;;;;;;6.80;2.83;;;;;;;;;;4964282;28;20022;-64
2023/04/25 01:02:12;;;;;;;6.57;2.23;;;;;;;;;;4966819;28;20030;-66
2023/04/25 01:04:37;;;;;;;6.38;2.85;;;;;;;;;;4957288;28;20582;-64
2023/04/25 01:07:02;;;;;;;7.23;3.03;;;;;;;;;;4963457;28;20023;-64
2023/04/25 01:09:27;;;;;;;6.13;2.40;;;;;;;;;;4971047;28;20046;-64
2023/04/25 01:11:52;;;;;;;7.50;2.70;;;;;;;;;;4970215;28;20023;-64
2023/04/25 01:14:18;;;;;;;7.65;2.90;;;;;;;;;;4967828;28;20612;-65
2023/04/25 01:16:44;;;;;;;6.07;2.47;;;;;;;;;;4968008;28;20166;-64
2023/04/25 01:19:13;;;;;;;7.38;2.67;;;;;;;;;;4968057;28;20514;-64
2023/04/25 01:21:38;;;;;;;7.03;2.60;;;;;;;;;;4958599;28;20015;-63
2023/04/25 01:24:04;;;;;;;6.95;2.60;;;;;;;;;;4966577;28;20500;-63
2023/04/25 01:26:29;;;;;;;5.90;2.70;;;;;;;;;;4957303;28;20416;-64
2023/04/25 01:28:55;;;;;;;7.35;2.95;;;;;;;;;;4959527;28;20098;-65
2023/04/25 01:31:20;;;;;;;8.07;2.78;;;;;;;;;;4968094;28;20170;-64
2023/04/25 01:33:46;;;;;;;5.35;2.67;;;;;;;;;;4965734;28;20031;-65
2023/04/25 01:36:12;;;;;;;7.07;2.90;;;;;;;;;;4965578;28;20046;-66
2023/04/25 01:38:37;;;;;;;5.88;2.50;;;;;;;;;;4959820;28;20031;-64
2023/04/25 01:41:02;;;;;;;5.97;2.70;;;;;;;;;;4959604;28;20029;-64
2023/04/25 01:43:27;;;;;;;5.80;2.93;;;;;;;;;;4961240;28;20031;-64
2023/04/25 01:45:53;;;;;;;7.53;2.70;;;;;;;;;;4964729;28;20459;-65
2023/04/25 01:48:18;;;;;;;7.05;2.55;;;;;;;;;;4961608;28;20015;-64
2023/04/25 01:50:43;;;;;;;6.43;2.60;;;;;;;;;;4969818;28;20015;-64
2023/04/25 01:53:09;;;;;;;6.93;3.40;;;;;;;;;;4969261;28;20117;-65
2023/04/25 01:55:34;;;;;;;5.85;2.55;;;;;;;;;;4965683;28;20015;-64
2023/04/25 01:58:00;;;;;;;7.35;2.70;;;;;;;;;;4968324;28;20050;-64
2023/04/25 02:00:25;;;;;;;6.53;2.78;;;;;;;;;;4971071;28;20112;-63
2023/04/25 02:02:53;;;;;;;6.50;2.57;;;;;;;;;;4970836;28;20031;-63
2023/04/25 02:05:18;;;;;;;6.18;2.75;;;;;;;;;;4964902;28;20038;-64
2023/04/25 02:07:44;;;;;;;8.10;2.83;;;;;;;;;;4969607;28;20489;-64
2023/04/25 02:10:09;;;;;;;7.10;2.50;;;;;;;;;;4970857;28;20018;-65
2023/04/25 02:12:35;;;;;;;7.18;2.70;;;;;;;;;;4970801;28;20022;-64
2023/04/25 02:15:00;;;;;;;5.30;2.40;;;;;;;;;;4961840;28;20439;-64
2023/04/25 02:17:26;;;;;;;8.17;2.50;;;;;;;;;;4961284;28;20051;-65
2023/04/25 02:19:51;;;;;;;6.03;2.53;;;;;;;;;;4967502;28;20505;-66
2023/04/25 02:22:16;;;;;;;4.55;2.00;;;;;;;;;;4963733;28;20106;-65
2023/04/25 02:24:41;;;;;;;5.70;2.42;;;;;;;;;;4963584;28;20485;-64
2023/04/25 02:27:07;;;;;;;5.88;2.50;;;;;;;;;;4963232;28;20015;-65
2023/04/25 02:29:32;;;;;;;6.03;2.15;;;;;;;;;;4969071;28;20055;-65
2023/04/25 02:31:57;;;;;;;6.03;2.70;;;;;;;;;;4968578;28;20102;-65
2023/04/25 02:34:23;;;;;;;7.15;2.88;;;;;;;;;;4961975;28;20026;-65
2023/04/25 02:36:48;;;;;;;7.20;2.60;;;;;;;;;;4966174;28;20356;-65
2023/04/25 02:39:13;;;;;;;7.13;2.90;;;;;;;;;;4962495;28;20039;-65
2023/04/25 02:41:38;;;;;;;6.43;2.63;;;;;;;;;;4971591;28;20446;-65
2023/04/25 02:44:04;;;;;;;7.97;2.75;;;;;;;;;;4972714;28;20486;-64
2023/04/25 02:46:29;;;;;;;5.53;2.60;;;;;;;;;;4971198;28;20560;-63
2023/04/25 02:48:54;;;;;;;6.65;2.90;;;;;;;;;;4965651;28;20027;-64
2023/04/25 02:51:19;;;;;;;5.83;2.70;;;;;;;;;;4960870;28;20094;-64
2023/04/25 02:53:44;;;;;;;5.38;2.63;;;;;;;;;;4967147;28;20031;-64
2023/04/25 02:56:09;;;;;;;7.63;2.70;;;;;;;;;;4966827;28;20027;-64
2023/04/25 02:58:35;;;;;;;7.10;2.90;;;;;;;;;;4968322;28;20458;-64
2023/04/25 03:01:00;;;;;;;5.85;3.20;;;;;;;;;;4966622;28;20035;-65
2023/04/25 03:03:25;;;;;;;8.82;3.15;;;;;;;;;;4968477;28;20035;-64
2023/04/25 03:05:50;;;;;;;7.23;3.03;;;;;;;;;;4966595;28;20033;-64
2023/04/25 03:08:16;;;;;;;5.80;2.80;;;;;;;;;;4968499;28;20470;-63
2023/04/25 03:10:41;;;;;;;7.80;4.15;;;;;;;;;;4967097;28;20011;-63
2023/04/25 03:13:07;;;;;;;10.43;4.18;;;;;;;;;;4962675;28;20019;-65
2023/04/25 03:15:32;;;;;;;7.03;3.30;;;;;;;;;;4971590;28;20089;-63
2023/04/25 03:17:57;;;;;;;7.30;3.53;;;;;;;;;;4969552;28;20029;-65
2023/04/25 03:20:22;;;;;;;8.32;3.35;;;;;;;;;;4969270;28;20042;-62
2023/04/25 03:22:47;;;;;;;7.47;3.40;;;;;;;;;;4967194;28;20019;-62
2023/04/25 03:25:12;;;;;;;7.43;3.35;;;;;;;;;;4969404;28;20505;-62
2023/04/25 03:27:37;;;;;;;6.70;3.30;;;;;;;;;;4973084;28;20150;-63
2023/04/25 03:30:03;;;;;;;7.28;3.35;;;;;;;;;;4970206;28;20534;-63
2023/04/25 03:32:28;;;;;;;7.25;3.50;;;;;;;;;;4964585;28;20091;-63
2023/04/25 03:34:53;;;;;;;8.82;4.05;;;;;;;;;;4969411;28;20394;-63
2023/04/25 03:37:18;;;;;;;7.75;3.72;;;;;;;;;;4963890;28;20030;-63
2023/04/25 03:39:43;;;;;;;9.02;3.90;;;;;;;;;;4967615;28;20054;-63
2023/04/25 03:42:09;;;;;;;6.77;3.40;;;;;;;;;;4958706;28;20501;-63
2023/04/25 03:44:34;;;;;;;6.80;3.70;;;;;;;;;;4967065;28;20401;-63
2023/04/25 03:46:59;;;;;;;6.20;3.20;;;;;;;;;;4965601;28;20470;-64
2023/04/25 03:49:24;;;;;;;8.20;3.83;;;;;;;;;;4958509;28;20023;-62
2023/04/25 03:51:49;;;;;;;6.82;3.50;;;;;;;;;;4972165;28;20959;-64
2023/04/25 03:54:16;;;;;;;7.68;3.70;;;;;;;;;;4963563;28;20509;-63
2023/04/25 03:56:41;;;;;;;7.35;3.70;;;;;;;;;;4966646;28;20026;-63
2023/04/25 03:59:06;;;;;;;9.33;3.97;;;;;;;;;;4970613;28;20417;-63
2023/04/25 04:01:31;;;;;;;7.13;3.80;;;;;;;;;;4969171;28;20023;-63
2023/04/25 04:03:56;;;;;;;7.20;3.63;;;;;;;;;;4969636;28;20027;-64
2023/04/25 04:06:21;;;;;;;8.60;3.87;;;;;;;;;;4969781;28;20034;-63
2023/04/25 04:08:47;;;;;;;7.63;3.73;;;;;;;;;;4957868;28;20029;-64
2023/04/25 04:11:12;;;;;;;8.93;4.07;;;;;;;;;;4966551;28;20037;-63
2023/04/25 04:13:37;;;;;;;6.77;3.90;;;;;;;;;;4968782;28;20038;-63
2023/04/25 04:16:04;;;;;;;9.00;4.00;;;;;;;;;;4965318;28;20102;-63
2023/04/25 04:18:29;;;;;;;8.05;3.80;;;;;;;;;;4964818;28;20114;-63
2023/04/25 04:20:54;;;;;;;8.68;4.07;;;;;;;;;;4967984;28;20109;-63
2023/04/25 04:23:20;;;;;;;7.55;3.80;;;;;;;;;;4963887;28;20023;-63
2023/04/25 04:25:46;;;;;;;8.75;3.83;;;;;;;;;;4962013;28;20554;-63
2023/04/25 04:28:13;;;;;;;9.52;3.95;;;;;;;;;;4968721;28;20031;-63
2023/04/25 04:30:38;;;;;;;9.13;3.67;;;;;;;;;;4967699;28;20471;-64
2023/04/25 04:33:04;;;;;;;7.85;3.70;;;;;;;;;;4962250;28;20042;-65
2023/04/25 04:35:29;;;;;;;11.33;4.30;;;;;;;;;;4963502;28;20510;-63
2023/04/25 04:37:54;;;;;;;9.63;4.00;;;;;;;;;;4964134;28;20030;-63
2023/04/25 04:40:20;;;;;;;8.02;3.80;;;;;;;;;;4960947;28;20129;-63
2023/04/25 04:42:45;;;;;;;8.82;3.72;;;;;;;;;;4963165;28;20038;-63
2023/04/25 04:45:11;;;;;;;8.60;3.87;;;;;;;;;;4964357;28;20167;-64
2023/04/25 04:47:36;;;;;;;8.05;4.05;;;;;;;;;;4960907;28;20644;-64
2023/04/25 04:50:02;;;;;;;8.55;3.60;;;;;;;;;;4966761;28;20030;-64
2023/04/25 04:52:27;;;;;;;9.10;3.78;;;;;;;;;;4963808;28;20031;-63
2023/04/25 04:54:52;;;;;;;10.75;4.15;;;;;;;;;;4965484;28;20467;-64
2023/04/25 04:57:17;;;;;;;7.50;3.67;;;;;;;;;;4966912;28;20034;-64
2023/04/25 04:59:42;;;;;;;8.70;3.80;;;;;;;;;;4966360;28;20094;-64
2023/04/25 05:02:08;;;;;;;8.83;3.80;;;;;;;;;;4960518;28;20031;-64
2023/04/25 05:04:33;;;;;;;7.93;3.30;;;;;;;;;;4960300;28;20039;-64
2023/04/25 05:06:58;;;;;;;6.90;3.22;;;;;;;;;;4959214;28;20113;-64
2023/04/25 05:09:25;;;;;;;6.97;3.20;;;;;;;;;;4958323;28;20023;-64
2023/04/25 05:11:50;;;;;;;7.72;3.63;;;;;;;;;;4963742;28;20591;-64
2023/04/25 05:14:16;;;;;;;8.63;3.83;;;;;;;;;;4963738;28;20027;-64
2023/04/25 05:16:42;;;;;;;9.55;4.00;;;;;;;;;;4965809;28;20015;-64
2023/04/25 05:19:07;;;;;;;6.93;3.22;;;;;;;;;;4964623;28;20066;-65
2023/04/25 05:21:32;;;;;;;8.93;4.23;;;;;;;;;;4964933;28;20367;-64
2023/04/25 05:23:57;;;;;;;7.37;3.57;;;;;;;;;;4970289;28;20474;-65
2023/04/25 05:26:23;;;;;;;7.30;3.35;;;;;;;;;;4971230;28;20161;-64
2023/04/25 05:28:50;;;;;;;9.43;3.55;;;;;;;;;;4964294;28;20017;-65
2023/04/25 05:31:15;;;;;;;6.32;3.60;;;;;;;;;;4965588;28;20023;-64
2023/04/25 05:33:41;;;;;;;7.18;3.30;;;;;;;;;;4963486;28;20513;-64
2023/04/25 05:36:06;;;;;;;6.95;3.30;;;;;;;;;;4956487;28;20074;-64
2023/04/25 05:38:31;;;;;;;7.47;3.50;;;;;;;;;;4956152;28;20025;-65
2023/04/25 05:40:56;;;;;;;7.47;3.40;;;;;;;;;;4962480;28;20027;-64
2023/04/25 05:43:22;;;;;;;9.00;3.57;;;;;;;;;;4958808;28;20055;-64
2023/04/25 05:45:47;;;;;;;7.38;3.10;;;;;;;;;;4975650;28;20450;-64
2023/04/25 05:48:12;;;;;;;9.23;3.40;;;;;;;;;;4975316;28;20034;-65
2023/04/25 05:50:37;;;;;;;9.73;3.53;;;;;;;;;;4963861;28;20018;-64
2023/04/25 05:53:02;;;;;;;6.47;3.10;;;;;;;;;;4965660;28;20667;-64
2023/04/25 05:55:27;;;;;;;7.80;2.92;;;;;;;;;;4970734;28;20023;-62
2023/04/25 05:57:52;;;;;;;9.50;3.78;;;;;;;;;;4968680;28;20098;-61
2023/04/25 06:00:18;;;;;;;10.10;3.00;;;;;;;;;;4970683;28;20051;-61
2023/04/25 06:02:44;;;;;;;9.10;3.88;;;;;;;;;;4971855;28;20015;-61
2023/04/25 06:05:09;;;;;;;8.63;3.60;;;;;;;;;;4966379;28;20046;-61
2023/04/25 06:07:34;;;;;;;7.50;3.13;;;;;;;;;;4969727;28;20501;-61
2023/04/25 06:10:00;;;;;;;7.77;3.77;;;;;;;;;;4973560;28;20476;-61
2023/04/25 06:12:25;;;;;;;8.82;3.85;;;;;;;;;;4970511;28;20030;-61
2023/04/25 06:14:51;;;;;;;8.27;3.83;;;;;;;;;;4966373;28;20022;-61
2023/04/25 06:17:16;;;;;;;8.63;3.38;;;;;;;;;;4965757;28;20125;-61
2023/04/25 06:19:41;;;;;;;7.70;3.22;;;;;;;;;;4963527;28;20591;-61
2023/04/25 06:22:07;;;;;;;10.00;4.27;;;;;;;;;;4966456;28;20031;-62
2023/04/25 06:24:32;;;;;;;9.18;3.53;;;;;;;;;;4971175;28;20023;-61
2023/04/25 06:26:57;;;;;;;7.20;3.47;;;;;;;;;;4966241;28;20019;-62
2023/04/25 06:29:22;;;;;;;9.60;4.35;;;;;;;;;;4965586;28;20047;-61
2023/04/25 06:31:47;;;;;;;8.23;3.70;;;;;;;;;;4971609;28;20022;-62
2023/04/25 06:34:12;;;;;;;8.15;4.00;;;;;;;;;;4971221;28;20504;-61
2023/04/25 06:36:38;;;;;;;9.45;3.95;;;;;;;;;;4969298;28;20023;-60
2023/04/25 06:39:04;;;;;;;8.55;4.05;;;;;;;;;;4960374;28;20027;-61
2023/04/25 06:41:29;;;;;;;7.45;4.00;;;;;;;;;;4969372;28;20327;-60
2023/04/25 06:43:55;;;;;;;9.53;4.10;;;;;;;;;;4969101;28;20023;-61
2023/04/25 06:46:20;;;;;;;9.48;3.95;;;;;;;;;;4960428;28;20114;-61
2023/04/25 06:48:45;;;;;;;8.23;4.03;;;;;;;;;;4982691;23;19998;-59
2023/04/25 06:51:10;;;;;;;9.30;4.30;;;;;;;;;;4991979;28;20034;-57
2023/04/25 06:53:36;;;;;;;10.13;4.47;;;;;;;;;;4981490;28;20034;-58
2023/04/25 06:56:01;;;;;;;9.83;4.17;;;;;;;;;;4985572;28;20018;-58
2023/04/25 06:58:26;;;;;;;9.43;4.80;;;;;;;;;;4985359;28;20026;-58
2023/04/25 07:00:51;;;;;;;10.35;4.13;;;;;;;;;;4992255;28;20424;-59
2023/04/25 07:03:16;;;;;;;9.40;4.10;;;;;;;;;;4988964;28;20585;-59
2023/04/25 07:05:42;;;;;;;8.90;4.38;;;;;;;;;;4973967;28;20027;-57
2023/04/25 07:08:07;;;;;;;9.60;4.43;;;;;;;;;;4973658;28;20026;-57
2023/04/25 07:10:32;;;;;;;8.20;4.30;;;;;;;;;;4976129;28;20117;-58
2023/04/25 07:12:57;;;;;;;9.87;4.27;;;;;;;;;;4984511;28;20110;-59
2023/04/25 07:15:22;;;;;;;10.00;4.38;;;;;;;;;;4975544;28;20031;-57
2023/04/25 07:17:47;;;;;;;9.45;4.05;;;;;;;;;;4973104;28;20022;-60
2023/04/25 07:20:12;;;;;;;9.77;4.00;;;;;;;;;;4973917;28;20022;-58
2023/04/25 07:22:38;;;;;;;9.67;3.90;;;;;;;;;;4987881;28;20054;-59
2023/04/25 07:25:04;;;;;;;10.40;4.32;;;;;;;;;;4989130;28;20015;-59
2023/04/25 07:27:29;;;;;;;10.07;3.75;;;;;;;;;;4993267;28;20061;-59
2023/04/25 07:29:54;;;;;;;8.50;3.67;;;;;;;;;;4993250;28;20015;-58
2023/04/25 07:32:19;;;;;;;9.33;3.80;;;;;;;;;;4989071;28;20019;-60
2023/04/25 07:34:44;;;;;;;9.43;3.40;;;;;;;;;;4986199;28;20037;-59
2023/04/25 07:37:10;;;;;;;10.00;3.73;;;;;;;;;;4993101;28;20065;-59
2023/04/25 07:39:36;;;;;;;8.10;3.40;;;;;;;;;;4993184;28;20801;-59
2023/04/25 07:42:02;;;;;;;8.77;3.33;;;;;;;;;;4984683;28;20027;-59
2023/04/25 07:44:27;;;;;;;9.17;3.63;;;;;;;;;;4981001;28;20037;-59
2023/04/25 07:46:52;;;;;;;6.47;3.25;;;;;;;;;;4973338;28;20454;-60
2023/04/25 07:49:17;;;;;;;8.07;2.92;;;;;;;;;;4973276;28;20025;-57
2023/04/25 07:51:45;;;;;;;6.63;3.22;;;;;;;;;;4984667;28;20652;-60
2023/04/25 07:54:13;;;;;;;6.95;3.22;;;;;;;;;;4987691;28;20161;-60
2023/04/25 07:56:38;;;;;;;7.50;3.00;;;;;;;;;;4988602;28;20063;-59
2023/04/25 07:59:03;;;;;;;7.50;3.03;;;;;;;;;;4988143;28;20050;-60
2023/04/25 08:01:28;;;;;;;6.55;3.40;;;;;;;;;;4991486;28;20501;-58
2023/04/25 08:03:54;;;;;;;8.52;3.40;;;;;;;;;;4983950;28;20037;-58
2023/04/25 08:06:19;;;;;;;7.73;3.23;;;;;;;;;;4993391;28;20108;-59
2023/04/25 08:08:45;;;;;;;8.45;3.50;;;;;;;;;;4992455;28;20022;-58
2023/04/25 08:11:10;;;;;;;7.80;3.47;;;;;;;;;;4981615;28;20206;-58
2023/04/25 08:13:35;;;;;;;8.95;3.17;;;;;;;;;;4987662;28;20023;-59
2023/04/25 08:16:00;;;;;;;8.20;3.10;;;;;;;;;;4973259;28;20090;-59
2023/04/25 08:18:25;;;;;;;7.25;2.50;;;;;;;;;;4975655;28;20038;-60
2023/04/25 08:20:51;;;;;;;7.20;2.97;;;;;;;;;;4975314;28;20540;-61
2023/04/25 08:23:16;;;;;;;4.90;2.33;;;;;;;;;;4987154;28;20030;-58
2023/04/25 08:25:41;;;;;;;7.83;3.10;;;;;;;;;;4997669;28;20033;-59
2023/04/25 08:28:06;;;;;;;6.57;2.73;;;;;;;;;;4990973;28;20038;-59
2023/04/25 08:30:31;;;;;;;5.97;2.70;;;;;;;;;;4981482;28;20090;-59
2023/04/25 08:32:57;;;;;;;7.20;2.60;;;;;;;;;;4973468;28;20699;-59
2023/04/25 08:35:22;;;;;;;5.32;2.25;;;;;;;;;;4972587;28;20618;-58
2023/04/25 08:37:49;;;;;;;7.23;2.33;;;;;;;;;;4976472;28;20137;-59
2023/04/25 08:40:14;;;;;;;5.47;2.38;;;;;;;;;;4980048;28;20015;-59
2023/04/25 08:42:41;;;;;;;4.65;2.05;;;;;;;;;;4971705;28;20458;-58
2023/04/25 08:45:06;;;;;;;8.45;2.55;;;;;;;;;;4972568;28;20094;-58
2023/04/25 08:47:32;;;;;;;6.85;2.45;;;;;;;;;;4975819;28;20558;-59
2023/04/25 08:49:58;;;;;;;6.22;2.47;;;;;;;;;;4980250;28;20138;-59
2023/04/25 08:52:24;;;;;;;6.28;2.30;;;;;;;;;;4971599;28;20110;-58
2023/04/25 08:54:49;;;;;;;7.10;2.70;;;;;;;;;;4971876;28;20162;-59
2023/04/25 08:57:15;;;;;;;6.90;2.13;;;;;;;;;;4975228;28;20101;-59
2023/04/25 08:59:44;;;;;;;5.65;2.47;;;;;;;;;;4983020;28;20021;-60
2023/04/25 09:02:11;;;;;;;5.63;2.25;;;;;;;;;;4991764;28;20109;-59
2023/04/25 09:04:36;;;;;;;7.32;2.60;;;;;;;;;;5007672;28;20094;-59
2023/04/25 09:07:02;;;;;;;5.90;2.53;;;;;;;;;;4999647;28;20049;-59
2023/04/25 09:09:27;;;;;;;6.07;2.53;;;;;;;;;;4984146;28;20522;-56
2023/04/25 09:11:53;;;;;;;7.83;2.70;;;;;;;;;;4991772;28;20501;-60
2023/04/25 09:14:24;;;;;;;6.45;2.97;;;;;;;;;;4991157;28;20027;-58
2023/04/25 09:16:56;;;;;;;7.13;3.08;;;;;;;;;;4980564;28;20090;-58
2023/04/25 09:19:22;;;;;;;6.07;2.92;;;;;;;;;;4986737;28;20015;-60
2023/04/25 09:21:51;;;;;;;6.82;2.90;;;;;;;;;;4971813;28;20023;-56
2023/04/25 09:24:16;;;;;;;8.48;3.75;;;;;;;;;;4971339;28;20029;-59
2023/04/25 09:26:41;;;;;;;8.00;3.20;;;;;;;;;;4971857;28;20023;-59
2023/04/25 09:29:07;;;;;;;8.53;3.40;;;;;;;;;;4981397;28;20956;-58
2023/04/25 09:31:33;;;;;;;6.45;3.00;;;;;;;;;;4990615;28;20025;-59
2023/04/25 09:33:58;;;;;;;7.63;3.58;;;;;;;;;;4990467;28;20039;-59
2023/04/25 09:36:25;;;;;;;10.10;3.53;;;;;;;;;;4991164;28;20026;-58
2023/04/25 09:38:50;;;;;;;6.82;3.65;;;;;;;;;;4984109;28;20091;-59
2023/04/25 09:41:21;;;;;;;7.07;3.50;;;;;;;;;;4988310;28;20039;-59
2023/04/25 09:43:48;;;;;;;6.15;2.92;;;;;;;;;;4988595;28;20109;-59
2023/04/25 09:46:13;;;;;;;6.20;2.80;;;;;;;;;;4971735;28;20023;-57
2023/04/25 09:48:39;;;;;;;8.85;3.35;;;;;;;;;;4980568;28;20493;-59
2023/04/25 09:51:07;;;;;;;7.23;3.20;;;;;;;;;;4985548;28;20030;-58
2023/04/25 09:53:33;;;;;;;8.30;3.13;;;;;;;;;;4982111;28;20100;-59
2023/04/25 09:56:00;;;;;;;8.57;3.30;;;;;;;;;;4990790;28;20030;-58
2023/04/25 09:58:25;;;;;;;7.78;3.08;;;;;;;;;;4989657;28;20948;-58
2023/04/25 10:00:51;;;;;;;8.93;3.45;;;;;;;;;;4976950;28;20019;-58
2023/04/25 10:03:17;;;;;;;11.03;3.50;;;;;;;;;;4979142;28;20019;-59
2023/04/25 10:05:43;;;;;;;9.30;3.80;;;;;;;;;;4979618;28;20476;-58
2023/04/25 10:08:08;;;;;;;8.93;3.97;;;;;;;;;;4980603;28;20046;-57
2023/04/25 10:10:36;;;;;;;6.57;3.65;;;;;;;;;;4979372;28;20051;-58
2023/04/25 10:13:02;;;;;;;8.07;4.38;;;;;;;;;;4974310;28;20498;-59
2023/04/25 10:15:27;;;;;;;7.07;3.35;;;;;;;;;;4974896;28;20061;-57
2023/04/25 10:17:52;;;;;;;9.87;3.70;;;;;;;;;;4976396;28;20047;-59
2023/04/25 10:20:18;;;;;;;8.60;3.40;;;;;;;;;;4982555;28;20027;-59
2023/04/25 10:22:44;;;;;;;7.50;3.33;;;;;;;;;;4975912;28;20385;-60
2023/04/25 10:25:11;;;;;;;7.43;3.15;;;;;;;;;;4986230;28;20528;-59
2023/04/25 10:27:36;;;;;;;7.40;3.10;;;;;;;;;;4993198;28;20033;-59
2023/04/25 10:30:09;;;;;;;8.05;2.50;;;;;;;;;;4986192;28;20022;-58
2023/04/25 10:32:35;;;;;;;6.35;2.65;;;;;;;;;;4974135;28;20026;-57
2023/04/25 10:35:13;;;;;;;10.15;3.20;;;;;;;;;;4974600;28;20042;-58
2023/04/25 10:37:55;;;;;;;5.10;2.53;;;;;;;;;;4976485;28;20029;-58
2023/04/25 10:40:24;;;;;;;6.05;2.80;;;;;;;;;;4987782;28;20037;-57
2023/04/25 10:42:51;;;;;;;7.53;2.80;;;;;;;;;;4984793;28;20042;-58
2023/04/25 10:45:17;;;;;;;7.40;3.00;;;;;;;;;;4981581;28;20502;-58
2023/04/25 10:47:45;;;;;;;5.28;2.88;;;;;;;;;;4982546;28;20053;-58
2023/04/25 10:50:10;;;;;;;5.50;2.53;;;;;;;;;;4973868;28;20022;-58
2023/04/25 10:52:38;;;;;;;7.80;3.03;;;;;;;;;;4973827;28;20030;-59
2023/04/25 10:55:03;;;;;;;6.13;2.72;;;;;;;;;;4984528;28;20023;-57
2023/04/25 10:57:37;;;;;;;6.13;3.08;;;;;;;;;;4985292;28;20026;-60
2023/04/25 11:00:06;;;;;;;8.15;2.88;;;;;;;;;;4983234;28;20045;-58
2023/04/25 11:02:31;;;;;;;8.15;3.10;;;;;;;;;;4974222;28;20394;-59
2023/04/25 11:04:56;;;;;;;9.73;3.17;;;;;;;;;;4976108;28;20081;-63
2023/04/25 11:07:22;;;;;;;8.13;3.03;;;;;;;;;;4982123;28;20109;-57
2023/04/25 11:09:48;;;;;;;6.80;3.03;;;;;;;;;;4973866;28;20384;-57
2023/04/25 11:12:13;;;;;;;7.13;3.67;;;;;;;;;;4973419;28;20035;-59
2023/04/25 11:14:39;;;;;;;7.07;3.40;;;;;;;;;;4979676;28;20034;-59
2023/04/25 11:17:05;;;;;;;8.98;4.32;;;;;;;;;;4985178;28;20054;-58
2023/04/25 11:19:30;;;;;;;8.15;4.00;;;;;;;;;;4979029;28;20022;-59
2023/04/25 11:21:56;;;;;;;7.90;3.70;;;;;;;;;;4979599;28;20027;-58
2023/04/25 11:24:25;;;;;;;8.93;3.70;;;;;;;;;;4980367;28;20202;-58
2023/04/25 11:26:50;;;;;;;8.27;3.58;;;;;;;;;;4973490;28;20033;-59
2023/04/25 11:29:15;;;;;;;8.48;3.97;;;;;;;;;;4973320;28;20018;-58
2023/04/25 11:31:43;;;;;;;8.37;3.40;;;;;;;;;;4976090;28;20031;-58
2023/04/25 11:34:08;;;;;;;11.80;3.20;;;;;;;;;;4984357;28;20019;-60
2023/04/25 11:36:34;;;;;;;8.93;3.20;;;;;;;;;;4988533;28;20015;-59
2023/04/25 11:38:59;;;;;;;7.35;2.60;;;;;;;;;;4981462;28;20630;-58
2023/04/25 11:41:25;;;;;;;6.85;1.98;;;;;;;;;;4973900;28;20033;-58
2023/04/25 11:43:51;;;;;;;5.28;2.00;;;;;;;;;;4986458;28;20023;-60
2023/04/25 11:46:17;;;;;;;5.00;1.92;;;;;;;;;;4988832;28;20025;-59
2023/04/25 11:48:42;;;;;;;7.93;1.60;;;;;;;;;;4992427;28;20014;-59
2023/04/25 11:51:08;;;;;;;4.78;1.25;;;;;;;;;;4990421;28;20034;-59
2023/04/25 11:53:34;;;;;;;5.00;1.30;;;;;;;;;;4987136;28;20105;-58
2023/04/25 11:55:59;;;;;;;6.53;1.70;;;;;;;;;;4998607;28;20037;-57
2023/04/25 11:58:25;;;;;;;5.55;1.70;;;;;;;;;;5001979;28;20106;-62
2023/04/25 12:00:50;;;;;;;6.13;1.92;;;;;;;;;;4985645;28;20038;-60
2023/04/25 12:03:17;;;;;;;5.70;1.90;;;;;;;;;;4980316;28;20050;-60
2023/04/25 12:05:42;;;;;;;4.95;1.77;;;;;;;;;;4984144;28;20030;-58
2023/04/25 12:08:11;;;;;;;4.13;1.50;;;;;;;;;;4992528;28;20034;-59
2023/04/25 12:10:37;;;;;;;6.88;1.98;;;;;;;;;;4991304;28;20021;-60
2023/04/25 12:13:17;;;;;;;7.63;1.77;;;;;;;;;;4981829;28;20034;-59
2023/04/25 12:15:42;;;;;;;5.55;1.73;;;;;;;;;;4984295;28;20022;-59
2023/04/25 12:18:07;;;;;;;5.70;1.80;;;;;;;;;;4992085;28;20022;-59
2023/04/25 12:20:32;;;;;;;8.47;1.90;;;;;;;;;;4982644;28;20481;-59
2023/04/25 12:22:57;;;;;;;6.83;1.90;;;;;;;;;;4990484;28;20029;-59
2023/04/25 12:25:41;;;;;;;7.32;2.10;;;;;;;;;;4983859;28;20026;-60
2023/04/25 12:28:23;;;;;;;7.00;2.17;;;;;;;;;;4991741;28;20073;-60
2023/04/25 12:31:07;;;;;;;6.40;2.10;;;;;;;;;;4991991;28;20029;-59
2023/04/25 12:33:35;;;;;;;7.30;1.80;;;;;;;;;;4987097;28;20045;-59
2023/04/25 12:36:08;;;;;;;8.88;2.30;;;;;;;;;;4980830;28;20014;-58
2023/04/25 12:38:41;;;;;;;8.95;2.13;;;;;;;;;;4980737;28;20026;-59
2023/04/25 12:41:06;;;;;;;;;;;;;;;;;;4985597;28;20021;-60
2023/04/25 12:43:31;;;;;;;8.15;2.10;;;;;;;;;;4988058;28;19910;-59
2023/04/25 12:45:56;;;;;;;9.60;2.20;;;;;;;;;;4981676;28;20525;-59
2023/04/25 12:48:22;;;;;;;13.07;2.58;;;;;;;;;;4974066;28;20039;-59
2023/04/25 12:50:51;;;;;;;7.55;1.92;;;;;;;;;;4971876;28;20030;-59
2023/04/25 12:53:19;;;;;;;8.00;2.20;;;;;;;;;;4970787;28;20037;-58
2023/04/25 12:55:46;;;;;;;8.20;2.08;;;;;;;;;;4986409;28;20015;-59
2023/04/25 12:58:12;;;;;;;7.70;2.25;;;;;;;;;;4988030;28;20033;-58
2023/04/25 13:00:37;;;;;;;9.23;2.42;;;;;;;;;;4991348;28;20034;-59
2023/04/25 13:03:03;;;;;;;9.57;2.70;;;;;;;;;;4991003;28;20062;-59
2023/04/25 13:05:28;;;;;;;9.68;2.60;;;;;;;;;;4981947;28;20042;-59
2023/04/25 13:07:53;;;;;;;10.48;2.58;;;;;;;;;;4978101;28;20030;-59
2023/04/25 13:10:18;;;;;;;8.87;2.93;;;;;;;;;;4972604;28;20390;-59
2023/04/25 13:12:43;;;;;;;10.63;2.80;;;;;;;;;;4972145;28;20841;-58
2023/04/25 13:15:10;;;;;;;7.27;2.37;;;;;;;;;;4984957;28;20025;-59
2023/04/25 13:17:36;;;;;;;11.32;2.53;;;;;;;;;;4982030;28;20488;-59
2023/04/25 13:20:01;;;;;;;10.73;2.60;;;;;;;;;;4983037;28;20117;-59
2023/04/25 13:22:26;;;;;;;9.73;2.53;;;;;;;;;;4977471;28;20275;-59
2023/04/25 13:24:51;;;;;;;10.23;2.78;;;;;;;;;;4984939;28;20018;-60
2023/04/25 13:27:16;;;;;;;10.50;2.85;;;;;;;;;;4986111;28;20038;-60
2023/04/25 13:29:41;;;;;;;8.13;2.65;;;;;;;;;;4991422;28;20037;-59
2023/04/25 13:32:08;;;;;;;13.75;2.97;;;;;;;;;;4991278;28;20033;-59
2023/04/25 13:34:33;;;;;;;9.40;2.78;;;;;;;;;;4990217;28;20109;-59
2023/04/25 13:36:58;;;;;;;11.50;3.42;;;;;;;;;;4990925;28;20042;-58
2023/04/25 13:39:24;;;;;;;14.77;2.88;;;;;;;;;;4988157;28;20037;-58
2023/04/25 13:41:49;;;;;;;12.93;3.23;;;;;;;;;;4985704;28;20103;-58
2023/04/25 13:44:14;;;;;;;10.23;2.90;;;;;;;;;;4984089;28;20453;-59
2023/04/25 13:46:39;;;;;;;9.93;3.00;;;;;;;;;;4986192;28;20014;-59
2023/04/25 13:49:04;;;;;;;14.23;3.40;;;;;;;;;;4982468;28;20026;-58
2023/04/25 13:51:30;;;;;;;9.52;2.28;;;;;;;;;;4994242;28;20018;-59
2023/04/25 13:53:55;;;;;;;7.70;2.20;;;;;;;;;;4993764;28;20023;-59
2023/04/25 13:56:21;;;;;;;8.70;2.93;;;;;;;;;;4994041;28;20014;-58
2023/04/25 13:58:47;;;;;;;12.05;2.40;;;;;;;;;;4991258;28;20027;-59
2023/04/25 14:01:12;;;;;;;9.07;2.40;;;;;;;;;;4992982;28;20022;-59
2023/04/25 14:03:37;;;;;;;9.85;2.40;;;;;;;;;;4985757;28;20053;-60
2023/04/25 14:06:04;;;;;;;7.53;2.22;;;;;;;;;;4992443;28;20095;-59
2023/04/25 14:08:29;;;;;;;;;;;;;;;;;;4993084;28;20037;-59
2023/04/25 14:10:54;;;;;;;10.98;2.88;;;;;;;;;;4993813;28;19910;-58
2023/04/25 14:13:20;;;;;;;11.80;2.50;;;;;;;;;;4984592;28;20030;-59
2023/04/25 14:15:45;;;;;;;12.05;2.45;;;;;;;;;;4982897;28;20026;-59
2023/04/25 14:18:10;;;;;;;6.87;2.40;;;;;;;;;;4986047;28;20042;-59
2023/04/25 14:20:35;;;;;;;9.82;2.50;;;;;;;;;;4994142;28;20105;-59
2023/04/25 14:23:01;;;;;;;12.77;2.83;;;;;;;;;;4993878;28;20033;-59
2023/04/25 14:25:26;;;;;;;9.57;2.80;;;;;;;;;;4993090;28;20034;-59
2023/04/25 14:27:51;;;;;;;10.57;3.23;;;;;;;;;;4985895;28;20073;-59
2023/04/25 14:30:17;;;;;;;8.97;2.70;;;;;;;;;;4994192;28;20029;-59
2023/04/25 14:32:42;;;;;;;8.80;2.92;;;;;;;;;;4993224;28;20026;-59
2023/04/25 14:35:08;;;;;;;9.27;2.60;;;;;;;;;;4992695;28;20081;-59
2023/04/25 14:37:33;;;;;;;11.57;2.42;;;;;;;;;;4981205;28;20014;-59